Time;durP1;ratioP1;P1;durP2;ratioP2;P2;SDS_P1;SDS_P2;PMS_P1;PMS_P2;Temp;Humidity;BMP_temperature;BMP_pressure;BME280_temperature;BME280_humidity;BME280_pressure;Samples;Min_cycle;Max_cycle;Signal;HPM_P1;HPM_P2
2021/04/04 00:01:57;;;;;;;2.70;0.70;;;15.90;99.90;;;;;;4927570;29;20245;-92
2021/04/04 00:04:28;;;;;;;3.17;1.10;;;15.90;99.90;;;;;;4930617;29;20228;-92
2021/04/04 00:06:59;;;;;;;2.30;1.00;;;16.00;99.90;;;;;;4928179;29;20208;-93
2021/04/04 00:09:32;;;;;;;1.10;0.90;;;15.90;99.90;;;;;;4922333;29;20225;-92
2021/04/04 00:12:02;;;;;;;2.27;0.97;;;15.90;99.90;;;;;;4921843;29;20319;-92
2021/04/04 00:14:37;;;;;;;4.40;0.90;;;15.90;99.90;;;;;;4922209;29;20336;-92
2021/04/04 00:17:09;;;;;;;0.93;0.70;;;15.80;99.90;;;;;;4921010;29;20209;-92
2021/04/04 00:19:40;;;;;;;3.60;1.20;;;15.70;99.90;;;;;;4922470;29;20729;-93
2021/04/04 00:22:11;;;;;;;2.13;0.90;;;15.70;99.90;;;;;;4922562;29;20233;-93
2021/04/04 00:24:45;;;;;;;2.83;0.87;;;15.70;99.90;;;;;;4926234;29;20208;-93
2021/04/04 00:27:16;;;;;;;4.23;1.30;;;15.70;99.90;;;;;;4928491;29;20234;-92
2021/04/04 00:29:47;;;;;;;2.10;0.70;;;15.70;99.90;;;;;;4930416;29;20243;-93
2021/04/04 00:32:19;;;;;;;1.87;0.80;;;15.60;99.90;;;;;;4929317;29;20236;-92
2021/04/04 00:34:51;;;;;;;3.30;1.20;;;15.50;99.90;;;;;;4933311;29;20553;-92
2021/04/04 00:37:22;;;;;;;3.90;1.07;;;15.60;99.90;;;;;;4931592;29;20659;-93
2021/04/04 00:39:54;;;;;;;1.33;0.70;;;15.60;99.90;;;;;;4921854;29;20288;-93
2021/04/04 00:42:25;;;;;;;3.87;1.00;;;15.50;99.90;;;;;;4911948;29;20214;-93
2021/04/04 00:44:56;;;;;;;3.00;0.70;;;15.50;99.90;;;;;;4911802;29;20225;-93
2021/04/04 00:47:35;;;;;;;4.07;0.80;;;15.50;99.90;;;;;;4908792;29;20198;-93
2021/04/04 00:50:09;;;;;;;1.97;0.77;;;15.40;99.90;;;;;;4902316;29;20227;-92
2021/04/04 00:52:41;;;;;;;0.90;0.63;;;15.40;99.90;;;;;;4907316;29;20209;-92
2021/04/04 00:55:16;;;;;;;1.47;0.50;;;15.40;99.90;;;;;;4908478;29;20208;-93
2021/04/04 00:57:49;;;;;;;1.53;0.50;;;15.40;99.90;;;;;;4905194;29;20268;-93
2021/04/04 01:00:23;;;;;;;2.77;0.90;;;15.30;99.90;;;;;;4908438;29;20634;-91
2021/04/04 01:02:55;;;;;;;0.80;0.40;;;15.30;99.90;;;;;;4908690;29;20209;-93
2021/04/04 01:05:30;;;;;;;1.93;0.60;;;15.30;99.90;;;;;;4919576;29;20256;-93
2021/04/04 01:08:01;;;;;;;3.57;0.70;;;15.20;99.90;;;;;;4925204;29;20197;-93
2021/04/04 01:10:37;;;;;;;0.93;0.50;;;15.20;99.90;;;;;;4923259;29;20220;-93
2021/04/04 01:13:17;;;;;;;0.83;0.50;;;15.20;99.90;;;;;;4908075;29;20258;-92
2021/04/04 01:15:55;;;;;;;2.50;0.70;;;15.10;99.90;;;;;;4906378;29;20220;-93
2021/04/04 01:18:32;;;;;;;1.63;0.50;;;15.10;99.90;;;;;;4905991;29;20257;-93
2021/04/04 01:21:08;;;;;;;0.83;0.40;;;15.10;99.90;;;;;;4914099;29;20232;-94
2021/04/04 01:24:14;;;;;;;1.17;0.70;;;15.00;99.90;;;;;;4924229;29;20272;-94
2021/04/04 01:27:09;;;;;;;1.07;0.60;;;15.00;99.90;;;;;;4925301;29;20220;-94
2021/04/04 01:29:42;;;;;;;2.93;0.80;;;14.90;99.90;;;;;;4927496;29;20337;-92
2021/04/04 01:32:14;;;;;;;1.73;0.60;;;14.90;99.90;;;;;;4929885;29;20228;-94
2021/04/04 01:34:45;;;;;;;0.83;0.60;;;14.90;99.90;;;;;;4930747;29;20205;-94
2021/04/04 01:37:20;;;;;;;2.17;0.80;;;14.80;99.90;;;;;;4931126;29;20212;-94
2021/04/04 01:39:58;;;;;;;1.17;0.67;;;14.70;99.90;;;;;;4925129;29;20209;-94
2021/04/04 01:42:32;;;;;;;4.73;0.97;;;14.70;99.90;;;;;;4922470;29;20217;-94
2021/04/04 01:45:06;;;;;;;1.30;0.60;;;14.70;99.90;;;;;;4923204;29;20213;-93
2021/04/04 01:47:38;;;;;;;1.40;1.30;;;14.60;99.90;;;;;;4953480;29;20239;-93
2021/04/04 01:50:11;;;;;;;3.63;1.23;;;14.60;99.90;;;;;;4922891;29;20296;-93
2021/04/04 01:52:44;;;;;;;1.13;0.60;;;14.50;99.90;;;;;;4922229;29;20268;-92
2021/04/04 01:55:15;;;;;;;3.70;1.10;;;14.50;99.90;;;;;;4922591;29;20209;-92
2021/04/04 01:57:48;;;;;;;1.40;0.90;;;14.50;99.90;;;;;;4923581;29;20205;-92
2021/04/04 02:00:26;;;;;;;2.67;0.80;;;14.50;99.90;;;;;;4922284;29;20237;-92
2021/04/04 02:02:57;;;;;;;2.23;0.70;;;14.40;99.90;;;;;;4921394;29;20237;-92
2021/04/04 02:05:29;;;;;;;1.30;0.60;;;14.40;99.90;;;;;;4923773;29;20217;-92
2021/04/04 02:08:00;;;;;;;1.07;0.60;;;14.30;99.90;;;;;;4926105;29;20212;-92
2021/04/04 02:10:31;;;;;;;3.90;1.00;;;14.30;99.90;;;;;;4923733;29;20213;-92
2021/04/04 02:13:03;;;;;;;2.87;1.10;;;14.20;99.90;;;;;;4921754;29;20292;-92
2021/04/04 02:15:37;;;;;;;2.97;1.17;;;14.00;99.90;;;;;;4922947;29;20244;-92
2021/04/04 02:18:11;;;;;;;3.53;1.00;;;14.00;99.90;;;;;;4923720;29;20236;-92
2021/04/04 02:20:45;;;;;;;4.77;1.57;;;13.90;99.90;;;;;;4928024;29;20270;-93
2021/04/04 02:23:18;;;;;;;2.63;1.40;;;13.80;99.90;;;;;;4939242;29;20201;-93
2021/04/04 02:25:53;;;;;;;3.87;1.77;;;13.60;99.90;;;;;;4941992;29;20229;-93
2021/04/04 02:28:24;;;;;;;4.67;1.90;;;13.50;99.90;;;;;;4970947;28;20201;-93
2021/04/04 02:30:57;;;;;;;5.43;1.80;;;13.30;99.90;;;;;;4942201;29;20221;-93
2021/04/04 02:33:36;;;;;;;4.60;1.87;;;13.20;99.90;;;;;;4940005;29;20193;-93
2021/04/04 02:36:11;;;;;;;2.57;1.90;;;13.10;99.90;;;;;;4935582;29;20249;-93
2021/04/04 02:38:45;;;;;;;2.63;1.73;;;13.10;99.90;;;;;;4923972;29;20212;-93
2021/04/04 02:41:19;;;;;;;2.53;1.60;;;13.00;99.90;;;;;;4921766;29;20255;-93
2021/04/04 02:43:57;;;;;;;5.80;2.07;;;12.90;99.90;;;;;;4923388;29;20230;-93
2021/04/04 02:46:34;;;;;;;2.97;1.80;;;12.70;99.90;;;;;;4923371;29;20220;-95
2021/04/04 02:49:09;;;;;;;2.50;1.60;;;12.60;99.90;;;;;;4922424;29;20213;-93
2021/04/04 02:51:42;;;;;;;2.63;1.73;;;12.50;99.90;;;;;;4923212;29;20614;-93
2021/04/04 02:54:17;;;;;;;5.13;2.00;;;12.50;99.90;;;;;;4929779;29;20603;-93
2021/04/04 02:56:51;;;;;;;2.23;1.83;;;12.50;99.90;;;;;;4931840;29;20227;-93
2021/04/04 02:59:27;;;;;;;2.10;1.70;;;12.40;99.90;;;;;;4927354;29;20241;-92
2021/04/04 03:02:04;;;;;;;2.10;1.70;;;12.40;99.90;;;;;;4925529;29;20268;-93
2021/04/04 03:04:37;;;;;;;3.80;1.57;;;12.30;99.90;;;;;;4933409;29;20232;-92
2021/04/04 03:07:10;;;;;;;4.43;1.90;;;12.30;99.90;;;;;;4932952;29;20221;-92
2021/04/04 03:09:45;;;;;;;5.67;2.33;;;12.30;99.90;;;;;;4919075;29;20258;-91
2021/04/04 03:12:17;;;;;;;7.03;2.47;;;12.30;99.90;;;;;;4909636;29;20690;-92
2021/04/04 03:14:50;;;;;;;7.27;2.40;;;12.30;99.90;;;;;;4912855;29;20265;-92
2021/04/04 03:17:23;;;;;;;6.73;2.20;;;12.30;99.90;;;;;;4911561;29;20217;-94
2021/04/04 03:19:55;;;;;;;7.20;2.50;;;12.20;99.90;;;;;;4910937;29;20221;-94
2021/04/04 03:22:29;;;;;;;4.13;2.43;;;12.20;99.90;;;;;;4913716;29;20224;-94
2021/04/04 03:25:01;;;;;;;4.17;2.67;;;12.10;99.90;;;;;;4910180;29;20265;-93
2021/04/04 03:27:33;;;;;;;6.40;2.53;;;12.10;99.90;;;;;;4910294;29;20210;-93
2021/04/04 03:30:34;;;;;;;4.67;2.40;;;12.10;99.90;;;;;;4917944;29;20653;-94
2021/04/04 03:33:05;;;;;;;4.43;2.30;;;12.10;99.90;;;;;;4926075;29;20212;-92
2021/04/04 03:36:02;;;;;;;4.70;2.67;;;12.10;99.90;;;;;;5154827;27;20524;-94
2021/04/04 03:38:33;;;;;;;4.10;2.63;;;12.00;99.90;;;;;;5154162;27;20218;-94
2021/04/04 03:41:05;;;;;;;4.90;2.50;;;12.10;99.90;;;;;;5151262;27;20261;-92
2021/04/04 03:43:41;;;;;;;5.13;2.60;;;12.10;99.90;;;;;;5137529;27;20225;-93
2021/04/04 03:46:15;;;;;;;5.73;2.73;;;11.90;99.90;;;;;;5140207;27;20287;-93
2021/04/04 03:48:47;;;;;;;6.70;2.43;;;11.80;99.90;;;;;;5139925;27;20270;-92
2021/04/04 03:51:23;;;;;;;5.93;2.27;;;11.80;99.90;;;;;;5135829;27;20198;-91
2021/04/04 03:53:58;;;;;;;3.63;1.90;;;11.80;99.90;;;;;;5135570;27;20236;-93
2021/04/04 03:56:34;;;;;;;3.67;1.90;;;11.80;99.90;;;;;;5138520;27;20205;-92
2021/04/04 03:59:12;;;;;;;4.57;2.30;;;11.70;99.90;;;;;;5137551;27;20205;-92
2021/04/04 04:01:49;;;;;;;6.83;1.90;;;11.60;99.90;;;;;;5134761;27;20215;-93
2021/04/04 04:04:22;;;;;;;3.43;1.60;;;11.60;99.90;;;;;;5134569;28;20233;-93
2021/04/04 04:06:55;;;;;;;3.33;1.70;;;11.50;99.90;;;;;;5134994;27;20254;-92
2021/04/04 04:09:26;;;;;;;3.93;1.70;;;11.50;99.90;;;;;;5135487;27;20274;-92
2021/04/04 04:11:57;;;;;;;2.43;1.70;;;11.60;99.90;;;;;;5138482;27;20201;-92
2021/04/04 04:14:31;;;;;;;2.63;1.43;;;11.50;99.90;;;;;;5148588;27;20267;-92
2021/04/04 04:17:03;;;;;;;4.77;1.33;;;11.40;99.90;;;;;;5143692;27;20624;-92
2021/04/04 04:19:34;;;;;;;3.37;1.40;;;11.30;99.90;;;;;;5138207;27;20251;-93
2021/04/04 04:22:10;;;;;;;2.93;1.23;;;11.20;99.90;;;;;;5136247;27;20266;-93
2021/04/04 04:24:40;;;;;;;1.73;1.10;;;11.10;99.90;;;;;;5135989;27;20205;-92
2021/04/04 04:27:16;;;;;;;2.90;1.20;;;11.00;99.90;;;;;;5139289;27;20185;-93
2021/04/04 04:29:55;;;;;;;4.00;1.33;;;11.00;99.90;;;;;;5137001;27;20214;-93
2021/04/04 04:32:27;;;;;;;1.97;0.80;;;10.90;99.90;;;;;;5134098;27;20238;-93
2021/04/04 04:34:58;;;;;;;1.70;1.10;;;10.80;99.90;;;;;;5143010;27;20225;-93
2021/04/04 04:37:32;;;;;;;3.17;1.43;;;10.70;99.90;;;;;;5142552;27;20247;-94
2021/04/04 04:40:06;;;;;;;3.37;1.20;;;10.60;99.90;;;;;;5139340;27;20206;-94
2021/04/04 04:42:41;;;;;;;4.13;1.33;;;10.50;99.90;;;;;;5135425;27;20205;-94
2021/04/04 04:45:17;;;;;;;3.77;1.13;;;10.40;99.90;;;;;;5129993;27;20208;-94
2021/04/04 04:47:49;;;;;;;7.03;1.30;;;10.20;99.90;;;;;;5119145;28;20258;-94
2021/04/04 04:50:21;;;;;;;3.57;1.10;;;10.10;99.90;;;;;;5102199;28;20226;-93
2021/04/04 04:52:55;;;;;;;3.30;1.00;;;10.00;99.90;;;;;;5116884;28;20243;-93
2021/04/04 04:55:26;;;;;;;4.37;1.43;;;9.90;99.90;;;;;;5120865;28;20264;-93
2021/04/04 04:57:57;;;;;;;4.03;1.30;;;9.90;99.90;;;;;;5123505;28;20232;-93
2021/04/04 05:00:28;;;;;;;5.37;1.37;;;9.70;99.90;;;;;;5120818;28;20242;-93
2021/04/04 05:03:01;;;;;;;4.27;1.00;;;9.70;99.90;;;;;;5121716;27;20241;-93
2021/04/04 05:05:32;;;;;;;4.00;1.27;;;9.70;99.90;;;;;;5123966;28;20198;-93
2021/04/04 05:08:06;;;;;;;4.80;1.10;;;9.50;99.90;;;;;;5124340;28;20252;-93
2021/04/04 05:10:39;;;;;;;2.73;1.07;;;9.50;99.90;;;;;;5119198;28;20206;-92
2021/04/04 05:13:10;;;;;;;1.83;0.87;;;9.40;99.90;;;;;;5117316;28;20209;-93
2021/04/04 05:15:42;;;;;;;3.90;1.00;;;9.40;99.90;;;;;;5118503;28;20302;-94
2021/04/04 05:18:13;;;;;;;6.27;1.43;;;9.30;99.90;;;;;;5118562;28;20253;-94
2021/04/04 05:20:46;;;;;;;3.20;1.07;;;9.30;99.90;;;;;;5118533;28;20206;-93
2021/04/04 05:23:24;;;;;;;6.10;1.00;;;9.20;99.90;;;;;;5117770;28;20218;-94
2021/04/04 05:25:56;;;;;;;4.70;1.10;;;9.10;99.90;;;;;;5117938;28;20202;-94
2021/04/04 05:28:27;;;;;;;4.77;1.20;;;9.10;99.90;;;;;;5119176;28;20715;-93
2021/04/04 05:31:04;;;;;;;3.30;1.10;;;9.00;99.90;;;;;;5118501;27;20191;-94
2021/04/04 05:33:34;;;;;;;6.07;1.40;;;9.00;99.90;;;;;;5116525;28;20259;-94
2021/04/04 05:36:13;;;;;;;4.13;1.10;;;8.90;99.90;;;;;;5132334;27;20278;-94
2021/04/04 05:38:46;;;;;;;6.93;1.20;;;8.80;99.90;;;;;;5137093;28;20210;-93
2021/04/04 05:41:18;;;;;;;4.33;1.40;;;8.70;99.90;;;;;;5136613;27;20208;-94
2021/04/04 05:43:56;;;;;;;3.93;1.30;;;8.70;99.90;;;;;;5135033;28;20262;-94
2021/04/04 05:46:36;;;;;;;3.90;1.00;;;8.60;99.90;;;;;;5129742;28;20232;-94
2021/04/04 05:49:17;;;;;;;9.13;1.40;;;8.60;99.90;;;;;;5125245;28;20221;-93
2021/04/04 05:51:55;;;;;;;6.07;1.50;;;8.50;99.90;;;;;;5120623;28;20202;-93
2021/04/04 05:55:05;;;;;;;4.77;1.30;;;8.40;99.90;;;;;;5120672;28;20236;-92
2021/04/04 05:57:46;;;;;;;10.30;1.70;;;8.30;99.90;;;;;;5112836;28;20209;-92
2021/04/04 06:00:18;;;;;;;6.50;1.50;;;8.20;99.90;;;;;;5115920;28;20207;-93
2021/04/04 06:03:33;;;;;;;6.33;1.67;;;8.20;99.90;;;;;;5113038;28;20194;-92
2021/04/04 06:06:27;;;;;;;8.93;2.00;;;8.20;99.90;;;;;;5019596;28;20213;-93
2021/04/04 06:09:16;;;;;;;6.10;1.70;;;8.10;99.90;;;;;;5016798;28;20322;-92
2021/04/04 06:12:10;;;;;;;6.53;1.60;;;8.10;99.90;;;;;;5088992;28;20212;-92
2021/04/04 06:15:01;;;;;;;6.93;1.80;;;8.00;99.90;;;;;;5096644;28;20268;-93
2021/04/04 06:17:39;;;;;;;6.37;1.80;;;8.00;99.90;;;;;;5097310;28;20297;-92
2021/04/04 06:20:15;;;;;;;11.03;1.83;;;8.00;99.90;;;;;;5097679;28;20646;-93
2021/04/04 06:23:00;;;;;;;7.10;1.77;;;8.00;99.90;;;;;;5097006;28;20235;-93
2021/04/04 06:25:43;;;;;;;7.07;1.73;;;7.90;99.90;;;;;;5112750;27;20206;-93
2021/04/04 06:28:27;;;;;;;6.73;1.23;;;7.90;99.90;;;;;;5117426;28;20209;-93
2021/04/04 06:31:14;;;;;;;5.97;1.20;;;7.80;99.90;;;;;;5118323;28;20247;-93
2021/04/04 06:33:50;;;;;;;5.57;1.90;;;7.80;99.90;;;;;;5118281;27;20249;-93
2021/04/04 06:36:37;;;;;;;6.87;1.53;;;7.90;99.90;;;;;;5117699;28;20203;-93
2021/04/04 06:39:13;;;;;;;7.33;1.43;;;7.80;99.90;;;;;;5118162;28;20624;-93
2021/04/04 06:42:11;;;;;;;8.73;1.90;;;7.80;99.90;;;;;;5117742;28;20232;-93
2021/04/04 06:45:02;;;;;;;8.33;2.00;;;7.70;99.90;;;;;;5120356;28;20206;-93
2021/04/04 06:47:42;;;;;;;12.27;2.13;;;7.70;99.90;;;;;;5119878;28;20210;-92
2021/04/04 06:50:18;;;;;;;9.17;1.90;;;7.60;99.90;;;;;;5119882;28;20245;-91
2021/04/04 06:53:06;;;;;;;5.87;1.93;;;7.60;99.90;;;;;;5120606;28;20232;-92
2021/04/04 06:55:46;;;;;;;4.30;1.67;;;7.60;99.90;;;;;;5118026;28;20233;-93
2021/04/04 06:58:43;;;;;;;7.10;1.67;;;7.60;99.90;;;;;;5119098;28;20206;-92
2021/04/04 07:01:30;;;;;;;6.97;1.70;;;7.50;99.90;;;;;;5118980;28;20682;-92
2021/04/04 07:04:07;;;;;;;6.70;1.73;;;7.60;99.90;;;;;;5115327;28;20216;-92
2021/04/04 07:07:12;;;;;;;5.17;1.50;;;7.50;99.90;;;;;;5116292;28;20210;-92
2021/04/04 07:10:09;;;;;;;6.80;1.43;;;7.60;99.90;;;;;;5116506;28;20194;-94
2021/04/04 07:12:57;;;;;;;6.33;1.77;;;7.60;99.90;;;;;;5115633;28;20259;-92
2021/04/04 07:15:46;;;;;;;5.00;1.60;;;7.50;99.90;;;;;;5116243;28;20510;-93
2021/04/04 07:18:45;;;;;;;5.13;1.50;;;7.60;99.90;;;;;;5116842;28;20202;-92
2021/04/04 07:21:41;;;;;;;7.63;2.00;;;7.60;99.90;;;;;;5115958;28;20205;-93
2021/04/04 07:24:20;;;;;;;8.23;1.67;;;7.50;99.90;;;;;;5116753;28;20273;-93
2021/04/04 07:27:04;;;;;;;4.53;1.93;;;7.50;99.90;;;;;;5116641;28;20272;-93
2021/04/04 07:29:48;;;;;;;6.93;1.80;;;7.50;99.90;;;;;;5116703;28;20206;-93
2021/04/04 07:32:22;;;;;;;7.83;1.97;;;7.50;99.90;;;;;;5115892;28;20240;-93
2021/04/04 07:35:05;;;;;;;10.73;2.13;;;7.50;99.90;;;;;;5118180;28;20236;-93
2021/04/04 07:37:48;;;;;;;4.03;1.80;;;7.50;99.90;;;;;;5121256;28;20210;-93
2021/04/04 07:40:26;;;;;;;8.80;2.23;;;7.50;99.90;;;;;;5122615;28;20194;-93
2021/04/04 07:43:05;;;;;;;5.10;1.77;;;7.50;99.90;;;;;;5115715;28;20292;-93
2021/04/04 07:45:38;;;;;;;7.67;1.60;;;7.50;99.90;;;;;;5120402;28;20226;-92
2021/04/04 07:48:23;;;;;;;4.27;1.57;;;7.50;99.90;;;;;;5121212;28;20212;-93
2021/04/04 07:51:04;;;;;;;8.53;2.00;;;7.40;99.90;;;;;;5107566;28;20183;-92
2021/04/04 07:53:44;;;;;;;6.90;1.90;;;7.50;99.90;;;;;;5129071;28;20200;-91
2021/04/04 07:56:21;;;;;;;4.37;1.60;;;7.50;99.90;;;;;;5135012;28;20180;-92
2021/04/04 07:58:58;;;;;;;4.67;1.53;;;7.40;99.90;;;;;;5136315;28;20198;-92
2021/04/04 08:01:39;;;;;;;5.23;1.70;;;7.40;99.90;;;;;;5134156;28;20216;-92
2021/04/04 08:04:14;;;;;;;3.83;1.77;;;7.40;99.90;;;;;;5130813;28;20211;-91
2021/04/04 08:07:01;;;;;;;5.63;1.40;;;7.50;99.90;;;;;;5126147;28;20259;-92
2021/04/04 08:09:37;;;;;;;6.60;1.63;;;7.50;99.90;;;;;;5125260;28;20205;-92
2021/04/04 08:12:25;;;;;;;5.77;1.50;;;7.50;99.90;;;;;;5125028;28;20202;-92
2021/04/04 08:15:03;;;;;;;4.50;1.57;;;7.50;99.90;;;;;;5124207;28;20208;-92
2021/04/04 08:17:34;;;;;;;4.40;1.40;;;7.50;99.90;;;;;;5128822;28;20213;-92
2021/04/04 08:20:12;;;;;;;3.80;1.40;;;7.60;99.90;;;;;;5133143;28;20194;-91
2021/04/04 08:22:51;;;;;;;11.40;1.47;;;7.50;99.90;;;;;;5137105;28;20209;-93
2021/04/04 08:25:29;;;;;;;6.67;1.30;;;7.50;99.90;;;;;;5122254;28;20226;-92
2021/04/04 08:28:04;;;;;;;1.67;1.00;;;7.50;99.90;;;;;;5121818;27;20695;-93
2021/04/04 08:30:40;;;;;;;4.00;1.33;;;7.60;99.90;;;;;;5120909;28;20630;-92
2021/04/04 08:33:18;;;;;;;5.60;1.23;;;7.60;99.90;;;;;;5117992;28;20237;-93
2021/04/04 08:35:52;;;;;;;9.20;1.73;;;7.60;99.90;;;;;;5119881;28;20274;-93
2021/04/04 08:38:29;;;;;;;8.77;1.30;;;7.50;99.90;;;;;;5121557;28;20202;-92
2021/04/04 08:41:03;;;;;;;5.37;1.60;;;7.50;99.90;;;;;;5121497;28;20210;-92
2021/04/04 08:43:35;;;;;;;3.60;1.17;;;7.50;99.90;;;;;;5122143;28;20203;-93
2021/04/04 08:46:21;;;;;;;7.33;1.60;;;7.40;99.90;;;;;;5120930;28;20294;-92
2021/04/04 08:48:53;;;;;;;6.00;1.53;;;7.50;99.90;;;;;;5119175;28;20198;-91
2021/04/04 08:51:29;;;;;;;3.93;1.27;;;7.40;99.90;;;;;;5118911;28;20609;-92
2021/04/04 08:54:01;;;;;;;4.80;1.47;;;7.40;99.90;;;;;;5118009;27;20236;-92
2021/04/04 08:56:34;;;;;;;5.17;1.80;;;7.40;99.90;;;;;;5118381;28;20301;-92
2021/04/04 08:59:09;;;;;;;4.23;1.37;;;7.40;99.90;;;;;;5118225;27;20212;-92
2021/04/04 09:01:41;;;;;;;3.40;1.27;;;7.40;99.90;;;;;;5117648;28;20198;-92
2021/04/04 09:04:11;;;;;;;7.90;1.33;;;7.40;99.90;;;;;;5122837;28;20262;-91
2021/04/04 09:06:43;;;;;;;4.33;1.37;;;7.40;99.90;;;;;;5123626;28;20234;-91
2021/04/04 09:09:22;;;;;;;5.83;1.30;;;7.40;99.90;;;;;;5123816;28;20271;-92
2021/04/04 09:11:54;;;;;;;3.53;1.27;;;7.40;99.90;;;;;;5118656;28;20237;-90
2021/04/04 09:14:25;;;;;;;4.37;1.40;;;7.40;99.90;;;;;;5118113;28;20379;-92
2021/04/04 09:16:57;;;;;;;3.53;1.20;;;7.40;99.90;;;;;;5118550;28;20259;-91
2021/04/04 09:19:30;;;;;;;3.67;1.27;;;7.40;99.90;;;;;;5118706;28;20203;-93
2021/04/04 09:22:04;;;;;;;8.13;1.20;;;7.40;99.90;;;;;;5117907;28;20287;-92
2021/04/04 09:24:46;;;;;;;3.90;1.40;;;7.40;99.90;;;;;;5118582;28;20233;-92
2021/04/04 09:27:19;;;;;;;4.03;1.23;;;7.40;99.90;;;;;;5125540;28;20210;-92
2021/04/04 09:29:52;;;;;;;5.50;1.40;;;7.40;99.90;;;;;;5124660;28;20205;-92
2021/04/04 09:32:31;;;;;;;4.43;1.03;;;7.40;99.90;;;;;;5124112;28;20214;-92
2021/04/04 09:35:04;;;;;;;3.07;1.10;;;7.40;99.90;;;;;;5117766;28;20685;-93
2021/04/04 09:37:36;;;;;;;3.90;0.90;;;7.40;99.90;;;;;;5120257;28;20240;-93
2021/04/04 09:40:10;;;;;;;4.07;1.47;;;7.40;99.90;;;;;;5119296;28;20206;-93
2021/04/04 09:42:41;;;;;;;4.60;1.40;;;7.40;99.90;;;;;;5120345;28;20290;-93
2021/04/04 09:45:20;;;;;;;5.67;1.20;;;7.40;99.90;;;;;;5121319;28;20216;-93
2021/04/04 09:47:52;;;;;;;5.07;1.10;;;7.30;99.90;;;;;;5118908;28;20301;-93
2021/04/04 09:50:25;;;;;;;4.73;1.30;;;7.30;99.90;;;;;;5119863;28;20655;-92
2021/04/04 09:52:56;;;;;;;6.07;2.10;;;7.40;99.90;;;;;;5116917;28;20561;-92
2021/04/04 09:55:34;;;;;;;5.00;1.20;;;7.40;99.90;;;;;;5116279;28;20644;-92
2021/04/04 09:58:06;;;;;;;3.63;1.10;;;7.30;99.90;;;;;;5115896;28;20237;-92
2021/04/04 10:00:41;;;;;;;7.40;1.50;;;7.30;99.90;;;;;;5119955;28;20646;-91
2021/04/04 10:03:13;;;;;;;3.37;1.50;;;7.30;99.90;;;;;;5116827;28;20245;-92
2021/04/04 10:05:45;;;;;;;3.83;1.37;;;7.30;99.90;;;;;;5120072;28;20283;-91
2021/04/04 10:08:17;;;;;;;3.00;1.27;;;7.30;99.90;;;;;;5117806;28;20659;-92
2021/04/04 10:10:52;;;;;;;5.83;1.30;;;7.30;99.90;;;;;;5120861;28;20194;-92
2021/04/04 10:13:28;;;;;;;2.20;1.20;;;7.30;99.90;;;;;;5118616;28;20670;-91
2021/04/04 10:16:01;;;;;;;5.00;1.40;;;7.30;99.90;;;;;;5116649;27;20256;-92
2021/04/04 10:18:31;;;;;;;6.57;1.50;;;7.30;99.90;;;;;;5124317;28;20237;-91
2021/04/04 10:21:16;;;;;;;5.30;1.13;;;7.30;99.90;;;;;;5119556;28;20198;-92
2021/04/04 10:23:47;;;;;;;2.90;1.33;;;7.30;99.90;;;;;;5119729;28;20202;-92
2021/04/04 10:26:23;;;;;;;5.70;1.57;;;7.30;99.90;;;;;;5124620;28;20682;-92
2021/04/04 10:28:56;;;;;;;4.27;1.00;;;7.30;99.90;;;;;;5126943;28;20198;-92
2021/04/04 10:31:27;;;;;;;7.03;1.37;;;7.30;99.90;;;;;;5126314;28;20223;-91
2021/04/04 10:34:05;;;;;;;3.47;1.33;;;7.30;99.90;;;;;;5124107;27;20206;-92
2021/04/04 10:36:36;;;;;;;2.10;1.20;;;7.30;99.90;;;;;;5121025;28;20198;-93
2021/04/04 10:39:21;;;;;;;6.90;1.70;;;7.20;99.90;;;;;;5123796;28;20198;-93
2021/04/04 10:41:54;;;;;;;5.67;1.60;;;7.20;99.90;;;;;;5125415;27;20214;-93
2021/04/04 10:44:25;;;;;;;2.33;1.20;;;7.20;99.90;;;;;;5133699;28;20236;-91
2021/04/04 10:47:15;;;;;;;5.13;2.70;;;7.20;99.90;;;;;;5133704;27;20206;-94
2021/04/04 10:49:47;;;;;;;3.83;1.70;;;7.20;99.90;;;;;;5129226;28;20202;-93
2021/04/04 10:52:18;;;;;;;4.53;1.53;;;7.20;99.90;;;;;;5115828;28;20210;-93
2021/04/04 10:54:50;;;;;;;5.07;1.33;;;7.20;99.90;;;;;;5116573;28;20674;-92
2021/04/04 10:57:22;;;;;;;6.23;1.47;;;7.10;99.90;;;;;;5117477;28;20214;-93
2021/04/04 10:59:54;;;;;;;3.83;1.30;;;7.10;99.90;;;;;;5116662;28;20293;-92
2021/04/04 11:02:25;;;;;;;4.13;1.27;;;7.10;99.90;;;;;;5114950;28;20209;-91
2021/04/04 11:04:59;;;;;;;3.00;1.40;;;7.10;99.90;;;;;;5118385;28;20220;-90
2021/04/04 11:07:33;;;;;;;5.20;1.30;;;7.10;99.90;;;;;;5117864;28;20226;-91
2021/04/04 11:10:09;;;;;;;4.30;1.40;;;7.20;99.90;;;;;;5115965;28;20289;-90
2021/04/04 11:12:46;;;;;;;4.33;1.13;;;7.10;99.90;;;;;;5115332;28;20202;-91
2021/04/04 11:15:19;;;;;;;3.17;1.10;;;7.20;99.90;;;;;;5116781;28;20211;-91
2021/04/04 11:17:50;;;;;;;2.80;1.30;;;7.20;99.90;;;;;;5116244;28;20271;-91
2021/04/04 11:20:22;;;;;;;6.47;1.53;;;7.10;99.90;;;;;;5116921;28;20339;-91
2021/04/04 11:22:54;;;;;;;3.07;1.40;;;7.20;99.90;;;;;;5116219;28;20222;-92
2021/04/04 11:25:31;;;;;;;4.57;1.30;;;7.20;99.90;;;;;;5120538;28;20228;-91
2021/04/04 11:28:17;;;;;;;2.37;1.10;;;7.20;99.90;;;;;;5120905;28;20210;-92
2021/04/04 11:30:48;;;;;;;3.53;1.30;;;7.10;99.90;;;;;;5119147;28;20206;-92
2021/04/04 11:33:26;;;;;;;6.30;1.30;;;7.10;99.90;;;;;;5116628;28;20253;-92
2021/04/04 11:36:08;;;;;;;3.33;1.00;;;7.10;99.90;;;;;;5121711;28;20305;-92
2021/04/04 11:38:58;;;;;;;5.30;1.40;;;7.00;99.90;;;;;;5117574;28;20202;-92
2021/04/04 11:41:29;;;;;;;3.33;1.40;;;7.00;99.90;;;;;;5122560;28;20202;-92
2021/04/04 11:44:24;;;;;;;5.03;1.30;;;7.00;99.90;;;;;;5120667;28;20287;-93
2021/04/04 11:46:57;;;;;;;3.63;1.30;;;7.10;99.90;;;;;;5124686;28;20250;-93
2021/04/04 11:49:38;;;;;;;4.70;1.77;;;7.10;99.90;;;;;;5121890;28;20222;-92
2021/04/04 11:52:40;;;;;;;7.67;1.50;;;7.10;99.90;;;;;;5117920;28;20287;-92
2021/04/04 11:55:11;;;;;;;5.13;1.20;;;7.00;99.90;;;;;;5083372;28;20205;-92
2021/04/04 11:57:44;;;;;;;3.90;1.40;;;7.00;99.90;;;;;;5124634;28;20281;-91
2021/04/04 12:00:20;;;;;;;4.30;1.30;;;6.90;99.90;;;;;;5122629;28;20569;-93
2021/04/04 12:03:04;;;;;;;7.87;1.57;;;6.90;99.90;;;;;;5130396;27;20603;-92
2021/04/04 12:05:39;;;;;;;9.33;1.70;;;6.90;99.90;;;;;;5124172;28;20237;-89
2021/04/04 12:08:09;;;;;;;3.17;1.30;;;7.00;99.90;;;;;;5125899;27;20225;-91
2021/04/04 12:10:41;;;;;;;4.33;1.17;;;7.00;99.90;;;;;;5120046;27;20256;-91
2021/04/04 12:13:15;;;;;;;4.47;1.67;;;7.00;99.90;;;;;;5119433;28;20198;-91
2021/04/04 12:15:50;;;;;;;3.87;1.27;;;7.00;99.90;;;;;;5119988;28;20229;-92
2021/04/04 12:18:20;;;;;;;2.77;1.27;;;6.90;99.90;;;;;;5119620;28;20662;-91
2021/04/04 12:20:51;;;;;;;2.30;1.33;;;7.00;99.90;;;;;;5120159;28;20233;-92
2021/04/04 12:23:22;;;;;;;3.83;1.30;;;7.00;99.90;;;;;;5119839;28;20255;-92
2021/04/04 12:25:53;;;;;;;6.53;1.30;;;6.90;99.90;;;;;;5118589;28;20308;-93
2021/04/04 12:28:24;;;;;;;5.20;1.30;;;7.00;99.90;;;;;;5122105;28;20202;-92
2021/04/04 12:30:59;;;;;;;7.50;1.53;;;6.90;99.90;;;;;;5120918;28;20281;-93
2021/04/04 12:33:39;;;;;;;5.97;1.57;;;6.80;99.90;;;;;;5122473;28;20209;-91
2021/04/04 12:36:09;;;;;;;7.37;2.00;;;6.80;99.90;;;;;;5128305;27;20206;-92
2021/04/04 12:38:41;;;;;;;4.83;1.50;;;6.80;99.90;;;;;;5125434;28;20206;-92
2021/04/04 12:41:12;;;;;;;2.77;1.37;;;6.80;99.90;;;;;;5126339;28;20233;-92
2021/04/04 12:43:43;;;;;;;3.27;1.33;;;6.80;99.90;;;;;;5126728;28;20255;-92
2021/04/04 12:46:15;;;;;;;4.67;1.80;;;6.80;99.90;;;;;;5128039;28;20249;-92
2021/04/04 12:48:46;;;;;;;8.07;1.50;;;6.90;99.90;;;;;;5124618;28;20638;-92
2021/04/04 12:51:16;;;;;;;8.57;1.60;;;6.90;99.90;;;;;;5123599;28;20205;-93
2021/04/04 12:53:50;;;;;;;4.67;1.30;;;6.90;99.90;;;;;;5121102;28;20202;-91
2021/04/04 12:56:37;;;;;;;7.27;1.47;;;6.90;99.90;;;;;;5121124;28;20201;-91
2021/04/04 12:59:17;;;;;;;8.97;1.60;;;6.90;99.90;;;;;;5120623;28;20210;-91
2021/04/04 13:01:49;;;;;;;8.73;1.97;;;6.80;99.90;;;;;;5132695;28;20256;-92
2021/04/04 13:04:21;;;;;;;7.27;1.70;;;6.80;99.90;;;;;;5115346;28;20198;-91
2021/04/04 13:06:52;;;;;;;6.90;1.70;;;6.80;99.90;;;;;;5110720;28;20253;-91
2021/04/04 13:09:23;;;;;;;5.43;1.77;;;6.70;99.90;;;;;;5100176;28;20205;-91
2021/04/04 13:11:55;;;;;;;4.73;1.37;;;6.70;99.90;;;;;;5098561;28;20203;-91
2021/04/04 13:14:29;;;;;;;7.27;1.30;;;6.60;99.90;;;;;;5098880;28;20659;-91
2021/04/04 13:17:02;;;;;;;4.27;1.07;;;6.60;99.90;;;;;;5099464;28;20210;-91
2021/04/04 13:19:41;;;;;;;4.47;1.20;;;6.60;99.90;;;;;;5102137;28;20211;-90
2021/04/04 13:22:12;;;;;;;3.77;1.37;;;6.50;99.90;;;;;;5104214;28;20199;-91
2021/04/04 13:24:43;;;;;;;5.80;1.10;;;6.50;99.90;;;;;;5102149;28;20202;-91
2021/04/04 13:27:14;;;;;;;6.87;1.10;;;6.50;99.90;;;;;;5106020;28;20192;-91
2021/04/04 13:29:44;;;;;;;5.23;1.23;;;6.50;99.90;;;;;;5118336;28;20195;-91
2021/04/04 13:32:16;;;;;;;4.63;1.27;;;6.60;99.90;;;;;;5117539;28;20190;-91
2021/04/04 13:34:50;;;;;;;9.90;1.30;;;6.50;99.90;;;;;;5117798;28;20206;-90
2021/04/04 13:37:22;;;;;;;5.13;1.30;;;6.60;99.90;;;;;;5132884;28;20201;-91
2021/04/04 13:39:53;;;;;;;5.57;1.53;;;6.50;99.90;;;;;;5138650;27;20218;-92